createdAt,value
2018-04-14T00:01:23.631Z,9.50
2018-04-14T00:03:53.404Z,10.60
2018-04-14T00:06:23.186Z,10.17
2018-04-14T00:08:53.761Z,10.13
2018-04-14T00:11:23.625Z,9.80
2018-04-14T00:13:54.362Z,9.73
2018-04-14T00:16:26.242Z,9.50
2018-04-14T00:18:56.007Z,9.88
2018-04-14T00:21:25.851Z,8.90
2018-04-14T00:23:56.451Z,9.88
2018-04-14T00:26:26.272Z,10.07
2018-04-14T00:28:56.099Z,9.18
2018-04-14T00:31:26.722Z,9.43
2018-04-14T00:33:56.548Z,9.68
2018-04-14T00:36:27.287Z,9.53
2018-04-14T00:38:57.159Z,9.87
2018-04-14T00:41:26.943Z,10.20
2018-04-14T00:43:56.745Z,10.10
2018-04-14T00:46:26.561Z,10.03
2018-04-14T00:48:56.340Z,10.98
2018-04-14T00:51:27.343Z,9.95
2018-04-14T00:53:57.394Z,10.30
2018-04-14T00:56:28.996Z,10.13
2018-04-14T00:58:59.000Z,11.32
2018-04-14T01:01:29.636Z,10.10
2018-04-14T01:03:59.506Z,10.37
2018-04-14T01:06:30.167Z,9.90
2018-04-14T01:09:00.052Z,10.00
2018-04-14T01:11:30.735Z,10.30
2018-04-14T01:14:00.546Z,10.98
2018-04-14T01:16:30.396Z,11.50
2018-04-14T01:19:01.091Z,10.50
2018-04-14T01:21:31.795Z,10.10
2018-04-14T01:24:01.598Z,11.00
2018-04-14T01:26:32.200Z,9.60
2018-04-14T01:29:02.037Z,10.40
2018-04-14T01:31:32.604Z,10.73
2018-04-14T01:34:02.434Z,10.68
2018-04-14T01:36:32.702Z,11.63
2018-04-14T01:39:03.293Z,11.20
2018-04-14T01:41:33.349Z,10.50
2018-04-14T01:44:03.883Z,10.93
2018-04-14T01:46:34.434Z,11.17
2018-04-14T01:49:04.223Z,11.20
2018-04-14T01:51:34.761Z,12.23
2018-04-14T01:54:05.176Z,11.90
2018-04-14T01:56:35.896Z,11.43
2018-04-14T01:59:05.720Z,11.63
2018-04-14T02:01:36.232Z,11.30
2018-04-14T02:04:06.039Z,13.25
2018-04-14T02:06:35.860Z,11.60
2018-04-14T02:09:06.028Z,11.50
2018-04-14T02:11:36.040Z,13.23
2018-04-14T02:14:05.856Z,13.13
2018-04-14T02:16:35.673Z,14.80
2018-04-14T02:19:05.525Z,16.23
2018-04-14T02:21:35.439Z,17.33
2018-04-14T02:24:05.251Z,20.47
2018-04-14T02:26:35.110Z,20.80
2018-04-14T02:29:04.907Z,18.98
2018-04-14T02:31:35.657Z,18.53
2018-04-14T02:34:06.032Z,20.20
2018-04-14T02:36:35.820Z,19.47
2018-04-14T02:39:06.015Z,19.83
2018-04-14T02:41:36.349Z,20.53
2018-04-14T02:44:06.283Z,20.37
2018-04-14T02:46:36.048Z,19.27
2018-04-14T02:49:06.675Z,20.40
2018-04-14T02:51:37.243Z,18.47
2018-04-14T02:54:07.007Z,19.17
2018-04-14T02:56:37.595Z,20.20
2018-04-14T02:59:07.994Z,20.23
2018-04-14T03:01:38.931Z,20.00
2018-04-14T03:04:09.155Z,21.00
2018-04-14T03:06:39.089Z,19.98
2018-04-14T03:09:08.971Z,18.67
2018-04-14T03:11:38.765Z,20.73
2018-04-14T03:14:09.876Z,19.67
2018-04-14T03:16:39.636Z,19.63
2018-04-14T03:19:10.240Z,19.83
2018-04-14T03:21:40.789Z,19.47
2018-04-14T03:24:11.338Z,20.10
2018-04-14T03:26:41.368Z,19.93
2018-04-14T03:29:11.136Z,19.80
2018-04-14T03:31:41.939Z,20.23
2018-04-14T03:34:11.693Z,18.67
2018-04-14T03:36:42.321Z,19.17
2018-04-14T03:39:14.072Z,19.80
2018-04-14T03:41:44.706Z,19.60
2018-04-14T03:44:15.258Z,21.53
2018-04-14T03:46:45.063Z,20.67
2018-04-14T03:49:14.986Z,19.20
2018-04-14T03:51:44.827Z,20.10
2018-04-14T03:54:14.641Z,20.50
2018-04-14T03:56:44.439Z,19.40
2018-04-14T03:59:14.827Z,21.37
2018-04-14T04:01:45.380Z,21.00
2018-04-14T04:04:16.093Z,20.90
2018-04-14T04:06:47.626Z,20.20
2018-04-14T04:09:17.466Z,20.70
2018-04-14T04:11:47.341Z,18.60
2018-04-14T04:14:17.125Z,20.00
2018-04-14T04:16:47.913Z,22.67
2018-04-14T04:19:29.419Z,19.90
2018-04-14T04:22:10.212Z,20.25
2018-04-14T04:24:51.146Z,19.23
2018-04-14T04:27:22.533Z,21.65
2018-04-14T04:29:53.311Z,19.83
2018-04-14T04:32:23.617Z,19.33
2018-04-14T04:34:54.568Z,19.10
2018-04-14T04:37:24.486Z,16.73
2018-04-14T04:39:54.295Z,19.13
2018-04-14T04:42:24.331Z,17.97
2018-04-14T04:44:54.594Z,17.55
2018-04-14T04:47:24.732Z,16.20
2018-04-14T04:49:54.959Z,17.53
2018-04-14T04:52:25.095Z,17.57
2018-04-14T04:54:55.345Z,17.30
2018-04-14T04:57:25.607Z,15.68
2018-04-14T04:59:55.772Z,15.87
2018-04-14T05:02:27.869Z,14.43
2018-04-14T05:04:57.678Z,16.80
2018-04-14T05:07:27.499Z,14.57
2018-04-14T05:09:58.052Z,14.20
2018-04-14T05:12:29.487Z,16.40
2018-04-14T05:14:59.283Z,14.68
2018-04-14T05:17:29.146Z,14.97
2018-04-14T05:19:58.928Z,14.77
2018-04-14T05:22:28.867Z,14.03
2018-04-14T05:24:58.770Z,14.33
2018-04-14T05:27:28.796Z,14.07
2018-04-14T05:29:58.948Z,14.43
2018-04-14T05:32:29.521Z,14.80
2018-04-14T05:34:59.419Z,13.53
2018-04-14T05:37:30.138Z,14.20
2018-04-14T05:39:59.972Z,13.30
2018-04-14T05:42:31.785Z,12.67
2018-04-14T05:45:01.612Z,12.90
2018-04-14T05:47:37.760Z,12.90
2018-04-14T05:50:08.423Z,13.50
2018-04-14T05:52:39.374Z,13.70
2018-04-14T05:55:10.102Z,14.50
2018-04-14T05:57:44.618Z,14.93
2018-04-14T06:00:17.601Z,15.10
2018-04-14T06:02:47.644Z,15.63
2018-04-14T06:05:17.645Z,14.27
2018-04-14T06:07:48.058Z,15.10
2018-04-14T06:10:18.384Z,14.03
2018-04-14T06:12:48.215Z,13.80
2018-04-14T06:15:18.102Z,14.40
2018-04-14T06:17:49.610Z,15.03
2018-04-14T06:20:20.471Z,14.27
2018-04-14T06:22:50.472Z,13.97
2018-04-14T06:25:20.516Z,15.67
2018-04-14T06:27:51.546Z,14.50
2018-04-14T06:30:21.311Z,12.20
2018-04-14T06:32:51.187Z,14.23
2018-04-14T06:35:21.815Z,12.43
2018-04-14T06:37:52.372Z,13.07
2018-04-14T06:40:22.181Z,12.57
2018-04-14T06:42:52.369Z,12.40
2018-04-14T06:45:23.005Z,12.17
2018-04-14T06:47:53.537Z,12.80
2018-04-14T06:50:25.088Z,12.80
2018-04-14T06:52:55.287Z,12.93
2018-04-14T06:55:26.416Z,12.83
2018-04-14T06:57:56.218Z,12.60
2018-04-14T07:00:26.051Z,13.47
2018-04-14T07:02:56.135Z,13.50
2018-04-14T07:05:26.434Z,14.50
2018-04-14T07:07:57.103Z,14.20
2018-04-14T07:10:26.915Z,16.80
2018-04-14T07:12:58.581Z,17.95
2018-04-14T07:15:28.398Z,21.80
2018-04-14T07:17:58.231Z,22.23
2018-04-14T07:20:28.087Z,19.37
2018-04-14T07:22:58.676Z,20.02
2018-04-14T07:25:28.475Z,19.20
2018-04-14T07:27:59.161Z,20.60
2018-04-14T07:30:28.972Z,21.47
2018-04-14T07:32:59.632Z,21.30
2018-04-14T07:35:29.476Z,22.70
2018-04-14T07:37:59.246Z,24.40
2018-04-14T07:40:29.498Z,23.77
2018-04-14T07:43:00.819Z,24.48
2018-04-14T07:45:30.598Z,26.07
2018-04-14T07:48:00.438Z,24.30
2018-04-14T07:50:30.284Z,24.97
2018-04-14T07:53:00.595Z,25.70
2018-04-14T07:55:30.818Z,25.12
2018-04-14T07:58:02.726Z,23.50
2018-04-14T08:00:32.583Z,21.77
2018-04-14T08:03:02.570Z,18.73
2018-04-14T08:05:32.406Z,18.93
2018-04-14T08:08:02.271Z,13.93
2018-04-14T08:10:33.718Z,11.43
2018-04-14T08:13:04.925Z,11.68
2018-04-14T08:15:34.738Z,11.93
2018-04-14T08:18:04.540Z,12.32
2018-04-14T08:20:34.469Z,11.45
2018-04-14T08:23:04.238Z,12.07
2018-04-14T08:25:34.651Z,11.68
2018-04-14T08:28:04.478Z,14.07
2018-04-14T08:30:34.305Z,12.87
2018-04-14T08:33:04.094Z,13.45
2018-04-14T08:35:34.921Z,12.97
2018-04-14T08:38:05.560Z,13.17
2018-04-14T08:40:35.965Z,12.40
2018-04-14T08:43:07.771Z,13.90
2018-04-14T08:45:37.590Z,14.60
2018-04-14T08:48:08.823Z,14.13
2018-04-14T08:50:53.359Z,14.57
2018-04-14T08:53:23.207Z,16.08
2018-04-14T08:55:53.036Z,17.70
2018-04-14T08:58:22.786Z,17.53
2018-04-14T09:00:53.402Z,18.13
2018-04-14T09:03:23.998Z,20.10
2018-04-14T09:05:53.846Z,21.17
2018-04-14T09:08:24.408Z,20.27
2018-04-14T09:10:55.424Z,21.02
2018-04-14T09:13:26.017Z,18.63
2018-04-14T09:15:55.938Z,18.65
2018-04-14T09:18:25.766Z,19.57
2018-04-14T09:20:55.589Z,20.83
2018-04-14T09:23:26.172Z,20.85
2018-04-14T09:25:56.002Z,20.20
2018-04-14T09:28:26.234Z,20.17
2018-04-14T09:30:56.078Z,21.20
2018-04-14T09:33:25.864Z,21.60
2018-04-14T09:35:55.679Z,21.43
2018-04-14T09:38:25.435Z,21.40
2018-04-14T09:40:55.259Z,19.93
2018-04-14T09:43:25.083Z,19.73
2018-04-14T09:45:54.992Z,21.83
2018-04-14T09:48:25.068Z,19.00
2018-04-14T09:50:56.203Z,17.55
2018-04-14T09:53:26.764Z,17.20
2018-04-14T09:58:32.099Z,14.10
2018-04-14T10:01:02.854Z,17.02
2018-04-14T10:03:32.663Z,15.32
2018-04-14T15:14:19.536Z,11.50
2018-04-14T15:16:49.322Z,10.70
2018-04-14T15:19:19.121Z,9.13
2018-04-14T15:21:48.932Z,10.03
2018-04-14T15:24:18.784Z,9.40
2018-04-14T15:26:48.576Z,9.50
2018-04-14T15:29:18.438Z,10.10
2018-04-14T15:31:48.226Z,10.10
2018-04-14T15:34:18.029Z,9.52
2018-04-14T15:36:48.670Z,9.60
2018-04-14T15:39:18.460Z,9.03
2018-04-14T15:41:48.240Z,10.60
2018-04-14T15:44:19.857Z,9.57
2018-04-14T15:46:50.762Z,10.40
2018-04-14T15:49:20.623Z,10.23
2018-04-14T15:51:51.441Z,10.70
2018-04-14T15:54:22.063Z,9.73
2018-04-14T15:56:51.908Z,9.90
2018-04-14T15:59:22.468Z,9.75
2018-04-14T16:01:52.557Z,10.43
2018-04-14T16:04:23.231Z,9.93
2018-04-14T16:06:53.025Z,10.70
2018-04-14T16:09:22.853Z,10.20
2018-04-14T16:11:53.475Z,11.03
2018-04-14T16:14:23.335Z,10.48
2018-04-14T16:16:53.072Z,9.87
2018-04-14T16:19:23.902Z,11.50
2018-04-14T16:21:54.716Z,11.13
2018-04-14T16:24:24.520Z,10.52
2018-04-14T16:26:54.301Z,10.10
2018-04-14T16:29:24.877Z,12.07
2018-04-14T16:31:54.700Z,13.30
2018-04-14T16:34:25.283Z,11.47
2018-04-14T16:36:55.187Z,12.43
2018-04-14T16:39:26.184Z,12.55
2018-04-14T16:41:56.009Z,11.73
2018-04-14T16:44:27.977Z,12.65
2018-04-14T16:46:57.862Z,12.07
2018-04-14T16:49:27.714Z,13.20
2018-04-14T16:51:57.565Z,11.87
2018-04-14T16:54:27.375Z,12.50
2018-04-14T16:56:57.165Z,10.80
2018-04-14T16:59:27.315Z,13.00
2018-04-14T17:01:57.806Z,12.50
2018-04-14T17:04:27.564Z,12.05
2018-04-14T17:06:57.639Z,12.63
2018-04-14T17:09:27.691Z,12.60
2018-04-14T17:11:57.974Z,13.67
2018-04-14T17:14:28.606Z,13.30
2018-04-14T17:16:58.395Z,13.80
2018-04-14T17:19:28.956Z,14.30
2018-04-14T17:21:58.735Z,13.63
2018-04-14T17:24:29.304Z,11.77
2018-04-14T17:26:59.084Z,11.57
2018-04-14T17:29:28.868Z,11.50
2018-04-14T17:31:58.711Z,11.10
2018-04-14T17:34:28.496Z,11.33
2018-04-14T17:36:58.456Z,10.97
2018-04-14T17:39:28.244Z,10.90
2018-04-14T17:41:58.816Z,12.63
2018-04-14T17:44:28.601Z,11.20
2018-04-14T17:46:58.401Z,10.60
2018-04-14T17:49:28.141Z,11.23
2018-04-14T17:51:58.325Z,11.40
2018-04-14T17:54:28.540Z,12.13
2018-04-14T17:56:59.527Z,11.63
2018-04-14T17:59:29.339Z,12.70
2018-04-14T18:01:59.343Z,12.20
2018-04-14T18:04:30.066Z,12.80
2018-04-14T18:06:59.953Z,12.57
2018-04-14T18:09:31.286Z,14.30
2018-04-14T18:12:01.056Z,13.60
2018-04-14T18:14:30.833Z,13.30
2018-04-14T18:17:01.460Z,12.67
2018-04-14T18:19:32.095Z,14.20
2018-04-14T18:22:02.855Z,13.60
2018-04-14T18:24:32.656Z,12.50
2018-04-14T18:27:02.440Z,14.30
2018-04-14T18:29:33.051Z,13.18
2018-04-14T18:32:02.866Z,13.47
2018-04-14T18:34:33.342Z,13.13
2018-04-14T18:37:03.151Z,13.70
2018-04-14T18:39:33.055Z,14.83
2018-04-14T18:42:02.883Z,15.20
2018-04-14T18:44:32.692Z,14.87
2018-04-14T18:47:03.445Z,15.37
2018-04-14T18:49:33.504Z,14.50
2018-04-14T18:52:03.307Z,13.07
2018-04-14T18:54:33.996Z,13.60
2018-04-14T18:57:03.765Z,16.10
2018-04-14T18:59:33.671Z,13.68
2018-04-14T19:02:04.015Z,14.30
2018-04-14T19:04:34.133Z,13.53
2018-04-14T19:07:05.141Z,14.73
2018-04-14T19:09:35.314Z,15.50
2018-04-14T19:12:05.126Z,17.10
2018-04-14T19:14:34.930Z,16.48
2018-04-14T19:17:05.203Z,16.02
2018-04-14T19:19:36.215Z,15.45
2018-04-14T19:22:06.011Z,14.50
2018-04-14T19:24:36.550Z,16.37
2018-04-14T19:27:07.312Z,15.30
2018-04-14T19:29:37.894Z,16.50
2018-04-14T19:32:07.722Z,16.17
2018-04-14T19:34:37.532Z,15.60
2018-04-14T19:37:07.735Z,17.43
2018-04-14T19:39:38.330Z,14.90
2018-04-14T19:42:08.168Z,15.40
2018-04-14T19:44:38.712Z,14.17
2018-04-14T19:47:09.661Z,14.90
2018-04-14T19:49:39.488Z,14.70
2018-04-14T19:52:09.276Z,14.90
2018-04-14T19:54:39.828Z,15.10
2018-04-14T19:57:09.645Z,16.17
2018-04-14T19:59:39.511Z,14.33
2018-04-14T20:02:10.053Z,14.60
2018-04-14T20:04:40.638Z,16.27
2018-04-14T20:07:10.488Z,15.33
2018-04-14T20:09:41.042Z,15.13
2018-04-14T20:12:11.037Z,15.80
2018-04-14T20:14:41.576Z,15.90
2018-04-14T20:17:11.402Z,15.87
2018-04-14T20:19:41.158Z,15.93
2018-04-14T20:22:11.048Z,17.00
2018-04-14T20:24:41.190Z,16.67
2018-04-14T20:27:12.316Z,16.52
2018-04-14T20:29:42.116Z,16.27
2018-04-14T20:32:11.919Z,16.93
2018-04-14T20:34:42.047Z,16.55
2018-04-14T20:37:13.061Z,16.73
2018-04-14T20:39:42.863Z,15.63
2018-04-14T20:42:13.467Z,15.57
2018-04-14T20:44:43.212Z,14.90
2018-04-14T20:47:13.818Z,15.30
2018-04-14T20:49:43.621Z,14.77
2018-04-14T20:52:14.375Z,15.40
2018-04-14T20:54:44.945Z,15.70
2018-04-14T20:57:14.755Z,17.67
2018-04-14T20:59:44.713Z,15.83
2018-04-14T21:02:14.590Z,15.77
2018-04-14T21:04:45.451Z,15.67
2018-04-14T21:07:15.372Z,15.97
2018-04-14T21:09:45.154Z,15.50
2018-04-14T21:12:16.276Z,15.07
2018-04-14T21:14:46.115Z,15.80
2018-04-14T21:17:15.901Z,14.90
2018-04-14T21:19:46.034Z,15.23
2018-04-14T21:22:16.350Z,15.53
2018-04-14T21:24:47.150Z,16.60
2018-04-14T21:27:17.738Z,16.62
2018-04-14T21:29:47.539Z,14.83
2018-04-14T21:32:17.355Z,16.27
2018-04-14T21:37:21.803Z,15.63
2018-04-14T21:39:51.709Z,15.13
2018-04-14T21:42:21.499Z,15.57
2018-04-14T21:44:51.280Z,15.10
2018-04-14T21:47:22.271Z,15.20
2018-04-14T21:49:52.038Z,14.37
2018-04-14T21:52:22.610Z,14.35
2018-04-14T21:54:53.163Z,14.67
2018-04-14T21:57:22.947Z,15.03
2018-04-14T21:59:52.825Z,15.40
2018-04-14T22:02:23.371Z,14.05
2018-04-14T22:04:53.305Z,14.13
2018-04-14T22:07:23.097Z,14.23
2018-04-14T22:09:52.921Z,15.03
2018-04-14T22:12:22.716Z,14.60
2018-04-14T22:14:52.543Z,14.77
2018-04-14T22:17:22.329Z,14.45
2018-04-14T22:19:52.868Z,14.37
2018-04-14T22:22:22.705Z,13.60
2018-04-14T22:24:52.508Z,14.23
2018-04-14T22:27:22.285Z,15.30
2018-04-14T22:29:52.817Z,15.50
2018-04-14T22:32:23.446Z,14.95
2018-04-14T22:34:53.963Z,15.20
2018-04-14T22:37:24.517Z,14.80
2018-04-14T22:39:54.329Z,14.50
2018-04-14T22:42:24.123Z,14.93
2018-04-14T22:44:54.699Z,15.17
2018-04-14T22:47:25.539Z,15.13
2018-04-14T22:49:55.326Z,14.85
2018-04-14T22:52:25.146Z,15.63
2018-04-14T22:54:54.917Z,14.63
2018-04-14T22:57:25.415Z,15.93
2018-04-14T22:59:55.202Z,14.57
2018-04-14T23:02:24.975Z,15.80
2018-04-14T23:04:55.093Z,16.03
2018-04-14T23:07:24.987Z,15.77
2018-04-14T23:09:55.884Z,18.80
2018-04-14T23:12:25.671Z,15.70
2018-04-14T23:14:55.494Z,17.85
2018-04-14T23:17:25.653Z,17.70
2018-04-14T23:19:55.984Z,17.25
2018-04-14T23:22:27.371Z,16.80
2018-04-14T23:24:57.887Z,16.73
2018-04-14T23:27:28.622Z,16.08
2018-04-14T23:29:59.160Z,15.93
2018-04-14T23:32:29.705Z,17.25
2018-04-14T23:34:59.443Z,16.37
2018-04-14T23:37:29.243Z,17.40
2018-04-14T23:39:59.146Z,18.10
2018-04-14T23:42:28.925Z,18.53
2018-04-14T23:44:59.492Z,20.77
2018-04-14T23:47:30.274Z,20.80
2018-04-14T23:50:00.048Z,21.20
2018-04-14T23:52:29.866Z,21.00
2018-04-14T23:54:59.671Z,18.40
2018-04-14T23:57:30.531Z,18.08
